Time;durP1;ratioP1;P1;durP2;ratioP2;P2;SDS_P1;SDS_P2;PMS_P1;PMS_P2;Temp;Humidity;BMP_temperature;BMP_pressure;BME280_temperature;BME280_humidity;BME280_pressure;Samples;Min_cycle;Max_cycle;Signal;HPM_P1;HPM_P2
2023/04/30 00:00:41;;;;;;;;;;;;;;;5.46;59.41;101368.06;5072617;28;19912;-71
2023/04/30 00:03:06;;;;;;;;;;;;;;;5.48;59.71;101367.94;5072626;28;20249;-71
2023/04/30 00:05:32;;;;;;;;;;;;;;;5.52;59.65;101359.72;5072820;28;19919;-71
2023/04/30 00:07:57;;;;;;;;;;;;;;;5.56;59.07;101360.31;5072259;28;20375;-72
2023/04/30 00:10:23;;;;;;;;;;;;;;;5.57;59.64;101362.84;5072680;28;19962;-72
2023/04/30 00:12:48;;;;;;;;;;;;;;;5.59;59.44;101360.06;5072490;28;20413;-73
2023/04/30 00:15:13;;;;;;;;;;;;;;;5.61;59.60;101352.88;5071226;28;20019;-72
2023/04/30 00:17:39;;;;;;;;;;;;;;;5.60;59.17;101349.41;5072087;28;19959;-72
2023/04/30 00:20:04;;;;;;;;;;;;;;;5.63;58.41;101342.19;5072313;28;19912;-72
2023/04/30 00:22:32;;;;;;;;;;;;;;;5.64;58.78;101336.78;5072288;28;19913;-71
2023/04/30 00:24:57;;;;;;;;;;;;;;;5.64;58.94;101328.84;5072294;28;20218;-71
2023/04/30 00:27:22;;;;;;;;;;;;;;;5.67;58.12;101325.97;5071178;28;19919;-72
2023/04/30 00:29:48;;;;;;;;;;;;;;;5.70;59.08;101320.47;5072501;28;20421;-72
2023/04/30 00:32:13;;;;;;;;;;;;;;;5.71;59.24;101316.84;5072201;28;20015;-71
2023/04/30 00:34:38;;;;;;;;;;;;;;;5.75;58.75;101306.88;5072363;28;19942;-72
2023/04/30 00:37:04;;;;;;;;;;;;;;;5.75;58.51;101301.59;5071998;28;19943;-71
2023/04/30 00:39:29;;;;;;;;;;;;;;;5.77;59.01;101302.31;5072313;28;20272;-71
2023/04/30 00:41:54;;;;;;;;;;;;;;;5.79;59.32;101295.13;5072298;28;19987;-71
2023/04/30 00:44:22;;;;;;;;;;;;;;;5.80;59.33;101297.66;5072096;28;19970;-74
2023/04/30 00:46:47;;;;;;;;;;;;;;;5.82;58.74;101295.75;5071949;28;19923;-72
2023/04/30 00:49:13;;;;;;;;;;;;;;;5.83;57.88;101289.50;5072081;28;20003;-72
2023/04/30 00:51:39;;;;;;;;;;;;;;;5.84;57.63;101285.88;5071869;28;19916;-72
2023/04/30 00:54:06;;;;;;;;;;;;;;;5.84;58.74;101291.19;5071763;28;19960;-71
2023/04/30 00:56:31;;;;;;;;;;;;;;;5.84;57.98;101280.59;5072051;28;19912;-72
2023/04/30 00:58:58;;;;;;;;;;;;;;;5.84;58.21;101272.66;5070805;28;20007;-72
2023/04/30 01:01:29;;;;;;;;;;;;;;;5.86;58.20;101262.81;5104613;28;19913;-73
2023/04/30 01:03:54;;;;;;;;;;;;;;;5.90;57.07;101255.50;5074227;28;19912;-72
2023/04/30 01:06:20;;;;;;;;;;;;;;;5.93;58.01;101247.34;5075872;28;20023;-71
2023/04/30 01:08:46;;;;;;;;;;;;;;;5.97;57.37;101245.28;5076424;28;19964;-73
2023/04/30 01:11:14;;;;;;;;;;;;;;;5.99;57.36;101240.72;5075906;28;20003;-72
2023/04/30 01:13:44;;;;;;;;;;;;;;;5.98;56.87;101246.97;5075702;28;19959;-72
2023/04/30 01:16:17;;;;;;;;;;;;;;;6.01;57.16;101241.44;5075683;28;20405;-72
2023/04/30 01:18:48;;;;;;;;;;;;;;;6.05;56.35;101237.59;5075545;28;19927;-71
2023/04/30 01:21:14;;;;;;;;;;;;;;;6.09;55.50;101226.66;5075638;28;19913;-72
2023/04/30 01:23:42;;;;;;;;;;;;;;;6.16;56.63;101225.22;5075499;28;19959;-72
2023/04/30 01:26:08;;;;;;;;;;;;;;;6.20;55.78;101208.13;5075337;28;20287;-71
2023/04/30 01:28:35;;;;;;;;;;;;;;;6.23;55.82;101212.31;5075539;28;19958;-72
2023/04/30 01:31:00;;;;;;;;;;;;;;;6.24;55.48;101198.13;5075393;28;19919;-70
2023/04/30 01:33:26;;;;;;;;;;;;;;;6.28;55.17;101194.28;5075107;28;19912;-72
2023/04/30 01:35:54;;;;;;;;;;;;;;;6.31;54.54;101194.03;5075279;28;19924;-71
2023/04/30 01:38:22;;;;;;;;;;;;;;;6.35;54.24;101195.44;5075214;28;19969;-71
2023/04/30 01:41:11;;;;;;;;;;;;;;;6.38;54.21;101194.38;5075640;28;20011;-72
2023/04/30 01:43:52;;;;;;;;;;;;;;;6.40;55.05;101187.16;5064468;28;20074;-72
2023/04/30 01:46:21;;;;;;;;;;;;;;;6.42;54.13;101169.34;5075458;28;19923;-71
2023/04/30 01:48:54;;;;;;;;;;;;;;;6.45;54.59;101174.41;5075299;28;19919;-72
2023/04/30 01:51:38;;;;;;;;;;;;;;;6.47;54.86;101161.88;5075226;28;20376;-72
2023/04/30 01:54:13;;;;;;;;;;;;;;;6.47;54.46;101154.78;5075046;28;20314;-71
2023/04/30 01:56:44;;;;;;;;;;;;;;;6.49;55.05;101152.00;5074925;28;20014;-71
2023/04/30 01:59:10;;;;;;;;;;;;;;;6.52;55.04;101138.53;5075024;28;19920;-72
2023/04/30 02:01:35;;;;;;;;;;;;;;;6.54;55.11;101139.22;5075003;28;20003;-72
2023/04/30 02:04:02;;;;;;;;;;;;;;;6.53;54.88;101138.38;5074946;28;19919;-72
2023/04/30 02:06:28;;;;;;;;;;;;;;;6.52;55.44;101134.06;5074808;28;19938;-70
2023/04/30 02:08:55;;;;;;;;;;;;;;;6.53;56.17;101130.44;5074812;28;20429;-72
2023/04/30 02:11:23;;;;;;;;;;;;;;;6.55;56.09;101117.09;5074864;28;19912;-72
2023/04/30 02:13:49;;;;;;;;;;;;;;;6.48;56.52;101114.13;5077036;28;20006;-71
2023/04/30 02:16:14;;;;;;;;;;;;;;;6.54;56.95;101118.06;5075204;28;19979;-72
2023/04/30 02:18:40;;;;;;;;;;;;;;;6.57;56.84;101114.31;5075649;28;19920;-71
2023/04/30 02:21:05;;;;;;;;;;;;;;;6.58;56.91;101111.53;5074914;28;19912;-70
2023/04/30 02:23:30;;;;;;;;;;;;;;;6.57;56.79;101095.78;5074885;28;19913;-70
2023/04/30 02:25:56;;;;;;;;;;;;;;;6.57;57.44;101093.97;5074919;28;19912;-72
2023/04/30 02:28:21;;;;;;;;;;;;;;;6.62;57.76;101090.94;5075069;28;20368;-71
2023/04/30 02:30:46;;;;;;;;;;;;;;;6.62;57.72;101085.66;5073367;28;19919;-72
2023/04/30 02:33:12;;;;;;;;;;;;;;;6.62;58.34;101081.19;5082044;28;19919;-71
2023/04/30 02:35:39;;;;;;;;;;;;;;;6.65;58.37;101082.75;5094560;28;19912;-70
2023/04/30 02:38:05;;;;;;;;;;;;;;;6.66;58.88;101077.34;5080718;28;20331;-70
2023/04/30 02:40:30;;;;;;;;;;;;;;;6.67;58.77;101075.53;5079928;28;19912;-70
2023/04/30 02:42:56;;;;;;;;;;;;;;;6.69;57.98;101081.53;5077469;28;20011;-70
2023/04/30 02:45:22;;;;;;;;;;;;;;;6.71;58.74;101076.97;5075779;28;20352;-72
2023/04/30 02:47:47;;;;;;;;;;;;;;;6.75;58.87;101075.72;5080266;28;20015;-72
2023/04/30 02:50:13;;;;;;;;;;;;;;;6.77;58.52;101073.78;5078857;28;20383;-72
2023/04/30 02:52:39;;;;;;;;;;;;;;;6.79;59.26;101070.03;5077290;28;19913;-72
2023/04/30 02:55:04;;;;;;;;;;;;;;;6.85;59.23;101060.72;5078141;28;19912;-72
2023/04/30 02:57:30;;;;;;;;;;;;;;;6.88;59.30;101060.47;5079608;28;20474;-72
2023/04/30 02:59:55;;;;;;;;;;;;;;;6.92;59.28;101051.28;5081481;28;19917;-71
2023/04/30 03:02:22;;;;;;;;;;;;;;;6.97;59.05;101062.34;5077464;28;19913;-72
2023/04/30 03:04:48;;;;;;;;;;;;;;;6.97;59.24;101051.75;5081293;28;19912;-72
2023/04/30 03:07:13;;;;;;;;;;;;;;;6.98;58.95;101053.41;5079563;28;20018;-73
2023/04/30 03:09:39;;;;;;;;;;;;;;;7.01;59.03;101060.25;5078593;28;19912;-73
2023/04/30 03:12:04;;;;;;;;;;;;;;;7.05;59.65;101051.91;5078088;28;19919;-72
2023/04/30 03:14:30;;;;;;;;;;;;;;;7.11;59.46;101045.25;5075722;28;19912;-72
2023/04/30 03:16:55;;;;;;;;;;;;;;;7.19;59.40;101039.28;5073703;28;19912;-70
2023/04/30 03:19:23;;;;;;;;;;;;;;;7.19;59.28;101036.63;5073361;28;19917;-72
2023/04/30 03:21:49;;;;;;;;;;;;;;;7.24;59.28;101034.44;5073170;28;19912;-72
2023/04/30 03:24:14;;;;;;;;;;;;;;;7.21;59.36;101040.81;5073116;28;19920;-70
2023/04/30 03:26:40;;;;;;;;;;;;;;;7.23;59.12;101028.31;5072906;28;20015;-72
2023/04/30 03:29:05;;;;;;;;;;;;;;;7.23;58.76;101028.31;5073379;28;19912;-72
2023/04/30 03:31:31;;;;;;;;;;;;;;;7.22;58.69;101031.06;5073460;28;20026;-72
2023/04/30 03:33:56;;;;;;;;;;;;;;;7.25;59.67;101036.94;5073125;28;19913;-72
2023/04/30 03:36:21;;;;;;;;;;;;;;;7.26;59.42;101025.38;5072806;28;20392;-71
2023/04/30 03:38:47;;;;;;;;;;;;;;;7.31;58.74;101022.31;5073057;28;19948;-72
2023/04/30 03:41:12;;;;;;;;;;;;;;;7.35;59.13;101021.06;5073002;28;19919;-72
2023/04/30 03:43:37;;;;;;;;;;;;;;;7.37;58.71;101019.13;5071850;28;19916;-72
2023/04/30 03:46:03;;;;;;;;;;;;;;;7.34;58.31;101014.09;5072939;28;19917;-71
2023/04/30 03:48:28;;;;;;;;;;;;;;;7.34;58.87;100998.19;5072852;28;20395;-72
2023/04/30 03:50:53;;;;;;;;;;;;;;;7.37;59.38;100996.13;5072707;28;19912;-72
2023/04/30 03:53:19;;;;;;;;;;;;;;;7.40;58.48;100997.66;5072818;28;19925;-72
2023/04/30 03:55:44;;;;;;;;;;;;;;;7.44;58.86;100991.94;5072722;28;19920;-72
2023/04/30 03:58:10;;;;;;;;;;;;;;;7.44;58.39;100977.84;5072771;28;19912;-72
2023/04/30 04:00:35;;;;;;;;;;;;;;;7.48;58.02;100976.59;5072613;28;19920;-73
2023/04/30 04:03:01;;;;;;;;;;;;;;;7.53;57.81;100971.75;5072811;28;19913;-73
2023/04/30 04:05:26;;;;;;;;;;;;;;;7.64;58.02;100966.31;5072856;28;20368;-72
2023/04/30 04:07:51;;;;;;;;;;;;;;;7.71;57.06;100962.13;5072613;28;20271;-71
2023/04/30 04:10:17;;;;;;;;;;;;;;;7.80;56.00;100962.25;5072690;28;20310;-73
2023/04/30 04:12:42;;;;;;;;;;;;;;;7.88;55.86;100951.81;5072646;28;19912;-72
2023/04/30 04:15:08;;;;;;;;;;;;;;;7.92;55.83;100955.84;5072605;28;20012;-72
2023/04/30 04:17:33;;;;;;;;;;;;;;;7.94;55.80;100949.41;5072490;28;20019;-72
2023/04/30 04:19:58;;;;;;;;;;;;;;;7.90;54.97;100944.53;5072479;28;19912;-72
2023/04/30 04:22:23;;;;;;;;;;;;;;;7.87;55.99;100944.81;5072228;28;19912;-71
2023/04/30 04:24:50;;;;;;;;;;;;;;;7.87;55.96;100947.47;5072910;28;19917;-72
2023/04/30 04:27:15;;;;;;;;;;;;;;;7.84;55.67;100948.59;5072631;28;19936;-72
2023/04/30 04:29:41;;;;;;;;;;;;;;;7.90;56.24;100941.88;5072518;28;20279;-71
2023/04/30 04:32:06;;;;;;;;;;;;;;;7.98;56.39;100947.31;5072309;28;19998;-71
2023/04/30 04:34:32;;;;;;;;;;;;;;;8.02;55.58;100944.22;5072258;28;19920;-72
2023/04/30 04:36:57;;;;;;;;;;;;;;;8.10;55.51;100942.72;5071991;28;19920;-71
2023/04/30 04:39:23;;;;;;;;;;;;;;;8.14;55.31;100934.31;5075605;28;19912;-72
2023/04/30 04:41:48;;;;;;;;;;;;;;;8.25;55.26;100934.16;5076661;28;19966;-72
2023/04/30 04:44:13;;;;;;;;;;;;;;;8.29;53.88;100926.72;5076484;28;20376;-72
2023/04/30 04:46:41;;;;;;;;;;;;;;;8.30;54.14;100945.16;5076386;28;20019;-72
2023/04/30 04:49:06;;;;;;;;;;;;;;;8.32;54.01;100937.06;5076181;28;19913;-71
2023/04/30 04:51:32;;;;;;;;;;;;;;;8.33;54.15;100936.06;5076347;28;19926;-71
2023/04/30 04:53:58;;;;;;;;;;;;;;;8.32;53.05;100927.28;5076404;28;19972;-71
2023/04/30 04:56:23;;;;;;;;;;;;;;;8.33;52.75;100934.28;5076081;28;20011;-72
2023/04/30 04:58:48;;;;;;;;;;;;;;;8.37;53.07;100943.63;5076273;28;19916;-71
2023/04/30 05:01:14;;;;;;;;;;;;;;;8.44;54.01;100937.78;5076100;28;19942;-71
2023/04/30 05:03:39;;;;;;;;;;;;;;;8.51;53.43;100941.50;5076074;28;19962;-73
2023/04/30 05:06:05;;;;;;;;;;;;;;;8.55;53.05;100943.72;5075744;28;19912;-71
2023/04/30 05:08:30;;;;;;;;;;;;;;;8.59;52.96;100923.03;5074774;28;19956;-71
2023/04/30 05:10:55;;;;;;;;;;;;;;;8.63;52.91;100932.38;5075981;28;20005;-71
2023/04/30 05:13:21;;;;;;;;;;;;;;;8.71;52.53;100931.66;5076087;28;19951;-71
2023/04/30 05:15:46;;;;;;;;;;;;;;;8.72;53.02;100936.84;5075753;28;20272;-71
2023/04/30 05:18:12;;;;;;;;;;;;;;;8.73;52.25;100935.84;5075655;28;19920;-72
2023/04/30 05:20:37;;;;;;;;;;;;;;;8.73;52.38;100937.66;5075386;28;19912;-71
2023/04/30 05:23:02;;;;;;;;;;;;;;;8.75;52.59;100939.19;5074252;28;19913;-71
2023/04/30 05:25:28;;;;;;;;;;;;;;;8.81;51.66;100935.94;5075879;28;19948;-71
2023/04/30 05:27:55;;;;;;;;;;;;;;;8.90;51.75;100920.94;5075650;28;19971;-72
2023/04/30 05:30:20;;;;;;;;;;;;;;;8.89;51.67;100909.47;5075389;28;19917;-69
2023/04/30 05:32:49;;;;;;;;;;;;;;;8.88;52.06;100905.16;5075578;28;19920;-71
2023/04/30 05:35:15;;;;;;;;;;;;;;;8.87;51.45;100908.78;5075372;28;19913;-71
2023/04/30 05:37:40;;;;;;;;;;;;;;;8.92;51.54;100893.25;5075067;28;19958;-71
2023/04/30 05:40:06;;;;;;;;;;;;;;;8.94;51.59;100896.59;5075483;28;19955;-73
2023/04/30 05:42:31;;;;;;;;;;;;;;;9.06;51.90;100899.03;5075190;28;19948;-71
2023/04/30 05:44:57;;;;;;;;;;;;;;;9.16;51.56;100899.81;5075241;28;19917;-71
2023/04/30 05:47:23;;;;;;;;;;;;;;;9.31;50.67;100912.44;5075131;28;19952;-72
2023/04/30 05:49:48;;;;;;;;;;;;;;;9.43;50.18;100913.06;5074568;28;20009;-72
2023/04/30 05:52:16;;;;;;;;;;;;;;;9.55;50.24;100903.88;5073604;28;19919;-71
2023/04/30 05:54:41;;;;;;;;;;;;;;;9.60;50.27;100892.78;5074801;28;19912;-72
2023/04/30 05:57:06;;;;;;;;;;;;;;;9.60;49.80;100887.47;5074860;28;19919;-71
2023/04/30 05:59:32;;;;;;;;;;;;;;;9.69;50.92;100891.00;5075126;28;19966;-72
2023/04/30 06:01:57;;;;;;;;;;;;;;;9.74;49.50;100894.03;5074707;28;19916;-71
2023/04/30 06:04:23;;;;;;;;;;;;;;;9.77;49.84;100889.25;5074842;28;19913;-73
2023/04/30 06:06:48;;;;;;;;;;;;;;;9.82;49.73;100880.81;5074645;28;19912;-72
2023/04/30 06:09:13;;;;;;;;;;;;;;;9.90;49.53;100888.88;5074883;28;19965;-71
2023/04/30 06:11:39;;;;;;;;;;;;;;;9.93;49.17;100889.38;5074721;28;19924;-72
2023/04/30 06:14:04;;;;;;;;;;;;;;;9.90;49.19;100896.84;5074702;28;19912;-72
2023/04/30 06:16:30;;;;;;;;;;;;;;;9.91;49.30;100898.50;5074393;28;20009;-71
2023/04/30 06:18:55;;;;;;;;;;;;;;;10.04;49.28;100901.59;5074718;28;19912;-71
2023/04/30 06:21:24;;;;;;;;;;;;;;;10.30;48.84;100901.63;5074850;28;19912;-73
2023/04/30 06:23:50;;;;;;;;;;;;;;;10.66;48.89;100896.97;5074619;28;19923;-72
2023/04/30 06:26:16;;;;;;;;;;;;;;;10.97;47.21;100899.94;5074605;28;19912;-72
2023/04/30 06:28:41;;;;;;;;;;;;;;;11.09;47.74;100903.97;5074560;28;19919;-71
2023/04/30 06:31:06;;;;;;;;;;;;;;;11.07;47.26;100902.47;5074281;28;20027;-73
2023/04/30 06:33:31;;;;;;;;;;;;;;;11.07;47.15;100900.66;5074163;28;19920;-73
2023/04/30 06:35:57;;;;;;;;;;;;;;;11.23;47.49;100893.66;5074165;28;19912;-70
2023/04/30 06:38:22;;;;;;;;;;;;;;;11.35;46.26;100887.88;5074149;28;19916;-71
2023/04/30 06:40:48;;;;;;;;;;;;;;;11.55;45.39;100877.72;5074126;28;19958;-70
2023/04/30 06:43:13;;;;;;;;;;;;;;;11.84;44.84;100889.75;5074252;28;19924;-74
2023/04/30 06:45:39;;;;;;;;;;;;;;;12.16;43.95;100880.91;5073786;28;19916;-71
2023/04/30 06:48:04;;;;;;;;;;;;;;;12.31;43.49;100889.84;5073672;28;19920;-72
2023/04/30 06:50:29;;;;;;;;;;;;;;;12.42;43.45;100892.16;5073925;28;19958;-72
2023/04/30 06:52:55;;;;;;;;;;;;;;;12.51;43.30;100888.47;5073773;28;19958;-74
2023/04/30 06:55:20;;;;;;;;;;;;;;;12.63;43.38;100888.94;5073934;28;19928;-71
2023/04/30 06:57:46;;;;;;;;;;;;;;;12.67;41.87;100895.59;5073616;28;19919;-74
2023/04/30 07:00:14;;;;;;;;;;;;;;;12.80;42.43;100887.03;5073054;28;19919;-73
2023/04/30 07:02:50;;;;;;;;;;;;;;;12.78;41.94;100886.38;5073268;28;20279;-72
2023/04/30 07:05:15;;;;;;;;;;;;;;;12.88;41.18;100897.69;5073915;28;19913;-71
2023/04/30 07:07:40;;;;;;;;;;;;;;;12.95;41.35;100891.44;5073649;28;19934;-72
2023/04/30 07:10:06;;;;;;;;;;;;;;;12.97;41.25;100899.28;5073575;28;19913;-74
2023/04/30 07:12:31;;;;;;;;;;;;;;;12.90;41.20;100896.50;5073688;28;19912;-72
2023/04/30 07:14:57;;;;;;;;;;;;;;;12.82;41.41;100887.69;5073397;28;19913;-73
2023/04/30 07:17:22;;;;;;;;;;;;;;;12.80;41.99;100890.53;5073278;28;19920;-75
2023/04/30 07:19:47;;;;;;;;;;;;;;;12.70;41.97;100884.53;5073587;28;20011;-74
2023/04/30 07:22:13;;;;;;;;;;;;;;;12.61;42.47;100883.75;5072047;28;20337;-72
2023/04/30 07:24:38;;;;;;;;;;;;;;;12.44;42.58;100886.69;5073347;28;19913;-72
2023/04/30 07:27:04;;;;;;;;;;;;;;;12.21;43.19;100889.22;5073449;28;20272;-71
2023/04/30 07:29:29;;;;;;;;;;;;;;;12.01;43.73;100894.09;5073135;28;19917;-72
2023/04/30 07:31:55;;;;;;;;;;;;;;;11.87;44.41;100898.28;5073225;28;19912;-74
2023/04/30 07:34:21;;;;;;;;;;;;;;;11.74;44.71;100895.22;5073495;28;20439;-74
2023/04/30 07:36:47;;;;;;;;;;;;;;;11.62;45.49;100901.91;5074006;28;19944;-74
2023/04/30 07:39:12;;;;;;;;;;;;;;;11.61;45.93;100909.09;5073300;28;19920;-73
2023/04/30 07:41:38;;;;;;;;;;;;;;;11.52;46.87;100914.56;5073905;28;19966;-71
2023/04/30 07:44:04;;;;;;;;;;;;;;;11.43;48.07;100911.88;5073132;28;20368;-72
2023/04/30 07:46:31;;;;;;;;;;;;;;;11.46;48.66;100910.72;5072524;28;20322;-71
2023/04/30 07:49:00;;;;;;;;;;;;;;;11.51;50.34;100907.56;5072757;28;20751;-71
2023/04/30 07:51:25;;;;;;;;;;;;;;;11.53;51.26;100922.38;5072750;28;19921;-73
2023/04/30 07:53:52;;;;;;;;;;;;;;;11.67;51.88;100910.25;5072670;28;19913;-71
2023/04/30 07:56:17;;;;;;;;;;;;;;;11.79;51.10;100915.09;5072521;28;19962;-72
2023/04/30 07:58:42;;;;;;;;;;;;;;;11.89;50.26;100914.97;5072334;28;20379;-71
2023/04/30 08:01:08;;;;;;;;;;;;;;;11.92;49.75;100922.63;5072442;28;19924;-74
2023/04/30 08:03:58;;;;;;;;;;;;;;;11.83;49.84;100914.78;5065285;28;19943;-73
2023/04/30 08:06:24;;;;;;;;;;;;;;;11.66;50.45;100922.75;5071908;28;20369;-72
2023/04/30 08:08:49;;;;;;;;;;;;;;;11.50;50.92;100925.38;5075274;28;20008;-68
2023/04/30 08:11:15;;;;;;;;;;;;;;;11.32;52.55;100925.53;5079770;28;19935;-76
2023/04/30 08:13:40;;;;;;;;;;;;;;;11.07;53.51;100926.47;5082905;28;20311;-73
2023/04/30 08:16:06;;;;;;;;;;;;;;;10.93;54.57;100943.88;5082897;28;19912;-69
2023/04/30 08:18:31;;;;;;;;;;;;;;;10.73;55.12;100940.66;5081505;28;19913;-70
2023/04/30 08:20:56;;;;;;;;;;;;;;;10.64;56.82;100938.94;5082308;28;20348;-71
2023/04/30 08:23:22;;;;;;;;;;;;;;;10.55;57.27;100931.91;5082975;28;19923;-69
2023/04/30 08:25:47;;;;;;;;;;;;;;;10.51;58.44;100938.53;5079241;28;20023;-70
2023/04/30 08:28:12;;;;;;;;;;;;;;;10.54;58.57;100943.53;5071938;28;19913;-71
2023/04/30 08:30:38;;;;;;;;;;;;;;;10.49;59.32;100943.19;5072176;28;19985;-71
2023/04/30 08:33:03;;;;;;;;;;;;;;;10.47;59.72;100950.50;5071799;28;19912;-71
2023/04/30 08:35:29;;;;;;;;;;;;;;;10.46;60.47;100943.50;5071883;28;19924;-72
2023/04/30 08:37:54;;;;;;;;;;;;;;;10.36;61.93;100942.75;5071830;28;20011;-70
2023/04/30 08:40:20;;;;;;;;;;;;;;;10.26;63.23;100950.84;5071855;28;20324;-72
2023/04/30 08:42:49;;;;;;;;;;;;;;;10.15;63.28;100962.56;5068978;28;19935;-75
2023/04/30 08:45:15;;;;;;;;;;;;;;;9.98;67.26;100963.41;5072913;28;19970;-73
2023/04/30 08:47:40;;;;;;;;;;;;;;;9.80;70.73;100959.91;5072426;28;20015;-75
2023/04/30 08:50:06;;;;;;;;;;;;;;;9.71;74.94;100963.50;5071177;28;20015;-76
2023/04/30 08:52:33;;;;;;;;;;;;;;;9.47;77.74;100977.38;5071603;28;20268;-72
2023/04/30 08:55:00;;;;;;;;;;;;;;;9.28;78.20;100991.66;5072086;28;19912;-71
2023/04/30 08:57:25;;;;;;;;;;;;;;;9.08;81.67;100990.06;5072038;28;19960;-73
2023/04/30 08:59:51;;;;;;;;;;;;;;;8.86;84.35;101002.72;5072173;28;19940;-73
2023/04/30 09:02:16;;;;;;;;;;;;;;;8.76;83.99;100995.78;5074932;28;19916;-72
2023/04/30 09:04:43;;;;;;;;;;;;;;;8.72;84.27;101000.56;5077316;28;20019;-72
2023/04/30 09:07:10;;;;;;;;;;;;;;;8.73;85.97;100998.75;5081294;28;20092;-73
2023/04/30 09:09:39;;;;;;;;;;;;;;;8.62;85.26;101003.22;5075825;28;19958;-73
2023/04/30 09:12:14;;;;;;;;;;;;;;;8.53;87.13;101013.88;5076422;28;20338;-73
2023/04/30 09:14:40;;;;;;;;;;;;;;;8.31;88.25;101015.81;5078213;28;19958;-74
2023/04/30 09:17:07;;;;;;;;;;;;;;;8.21;88.79;101015.00;5077535;28;19920;-71
2023/04/30 09:19:33;;;;;;;;;;;;;;;8.19;90.30;101014.31;5080300;28;19947;-74
2023/04/30 09:21:58;;;;;;;;;;;;;;;8.19;91.81;101016.13;5077923;28;19916;-77
2023/04/30 09:24:24;;;;;;;;;;;;;;;8.19;91.78;101022.28;5076110;28;19916;-70
2023/04/30 09:26:49;;;;;;;;;;;;;;;8.17;92.47;101018.09;5076633;28;19936;-72
2023/04/30 09:29:15;;;;;;;;;;;;;;;8.16;93.24;101024.38;5076368;28;19913;-71
2023/04/30 09:31:47;;;;;;;;;;;;;;;8.10;93.32;101027.59;5076842;28;19969;-73
2023/04/30 09:34:12;;;;;;;;;;;;;;;8.05;95.65;101031.47;5077744;28;19917;-74
2023/04/30 09:36:52;;;;;;;;;;;;;;;8.00;96.61;101031.06;5078377;28;19913;-76
2023/04/30 09:39:17;;;;;;;;;;;;;;;7.89;98.75;101022.41;5075366;28;20249;-75
2023/04/30 09:41:43;;;;;;;;;;;;;;;7.89;98.17;101025.06;5075058;28;19927;-72
2023/04/30 09:44:25;;;;;;;;;;;;;;;7.87;98.13;101021.72;5075100;28;20042;-72
2023/04/30 09:46:51;;;;;;;;;;;;;;;7.83;98.08;101030.94;5075343;28;20011;-71
2023/04/30 09:49:18;;;;;;;;;;;;;;;7.76;99.03;101026.16;5075222;28;19917;-73
2023/04/30 09:51:52;;;;;;;;;;;;;;;7.80;97.94;101032.03;5075298;28;19920;-71
2023/04/30 09:54:19;;;;;;;;;;;;;;;7.73;98.65;101034.38;5075251;28;20426;-69
2023/04/30 09:56:45;;;;;;;;;;;;;;;7.61;98.91;101030.19;5074861;28;19913;-70
2023/04/30 09:59:12;;;;;;;;;;;;;;;7.50;100.00;101032.94;5076088;28;19916;-72
2023/04/30 10:01:38;;;;;;;;;;;;;;;7.49;100.00;101043.69;5076923;28;19912;-70
2023/04/30 10:04:04;;;;;;;;;;;;;;;7.50;100.00;101046.19;5076149;28;20318;-70
2023/04/30 10:06:34;;;;;;;;;;;;;;;7.48;100.00;101053.44;5075110;28;19916;-71
2023/04/30 10:09:01;;;;;;;;;;;;;;;7.41;100.00;101053.16;5074725;28;20019;-68
2023/04/30 10:11:31;;;;;;;;;;;;;;;7.37;100.00;101045.63;5074640;28;20011;-69
2023/04/30 10:14:02;;;;;;;;;;;;;;;7.37;100.00;101046.47;5074509;28;19951;-68
2023/04/30 10:16:39;;;;;;;;;;;;;;;7.37;100.00;101046.47;5074386;28;20283;-69
2023/04/30 10:19:09;;;;;;;;;;;;;;;7.41;100.00;101042.56;5071979;28;20421;-69
2023/04/30 10:21:37;;;;;;;;;;;;;;;7.46;100.00;101060.69;5056838;28;19916;-69
2023/04/30 10:24:03;;;;;;;;;;;;;;;7.46;100.00;101050.09;5054665;28;20007;-72
2023/04/30 10:26:28;;;;;;;;;;;;;;;7.49;100.00;101047.16;5054321;28;19963;-69
2023/04/30 10:28:57;;;;;;;;;;;;;;;7.52;100.00;101051.34;5054392;28;19920;-69
2023/04/30 10:31:23;;;;;;;;;;;;;;;7.57;100.00;101049.16;5054223;28;20015;-69
2023/04/30 10:33:51;;;;;;;;;;;;;;;7.56;100.00;101048.34;5054083;28;19956;-70
2023/04/30 10:36:21;;;;;;;;;;;;;;;7.51;100.00;101050.53;5053241;28;19913;-68
2023/04/30 10:38:46;;;;;;;;;;;;;;;7.47;100.00;101052.59;5052969;28;20315;-70
2023/04/30 10:41:12;;;;;;;;;;;;;;;7.34;100.00;101056.50;5053866;28;20387;-68
2023/04/30 10:43:37;;;;;;;;;;;;;;;7.32;100.00;101050.50;5053800;28;19970;-70
2023/04/30 10:46:03;;;;;;;;;;;;;;;7.30;100.00;101045.31;5054290;28;19917;-69
2023/04/30 10:48:32;;;;;;;;;;;;;;;7.28;100.00;101049.91;5053777;28;19917;-69
2023/04/30 10:50:58;;;;;;;;;;;;;;;7.23;100.00;101056.56;5054055;28;19920;-71
2023/04/30 10:53:25;;;;;;;;;;;;;;;7.22;100.00;101057.53;5053543;28;19912;-68
2023/04/30 10:55:58;;;;;;;;;;;;;;;7.17;100.00;101043.88;5053877;28;19917;-69
2023/04/30 10:58:25;;;;;;;;;;;;;;;7.11;100.00;101058.50;5053889;28;19913;-68
2023/04/30 11:00:58;;;;;;;;;;;;;;;7.04;100.00;101050.25;5053763;28;19916;-69
2023/04/30 11:03:24;;;;;;;;;;;;;;;6.98;100.00;101049.94;5053733;28;19999;-71
2023/04/30 11:05:49;;;;;;;;;;;;;;;7.00;100.00;101058.59;5054257;28;19952;-70
2023/04/30 11:08:15;;;;;;;;;;;;;;;7.07;100.00;101071.16;5053612;28;20018;-67
2023/04/30 11:10:55;;;;;;;;;;;;;;;6.98;100.00;101049.94;5053474;28;20317;-70
2023/04/30 11:13:21;;;;;;;;;;;;;;;6.96;100.00;101055.38;5053875;28;19924;-68
2023/04/30 11:15:47;;;;;;;;;;;;;;;6.97;100.00;101056.22;5053308;28;20272;-69
2023/04/30 11:18:12;;;;;;;;;;;;;;;6.96;100.00;101060.66;5053683;28;20028;-70
2023/04/30 11:20:47;;;;;;;;;;;;;;;6.99;100.00;101065.69;5053711;28;19919;-69
2023/04/30 11:23:14;;;;;;;;;;;;;;;7.00;100.00;101072.66;5053369;28;20323;-69
2023/04/30 11:25:45;;;;;;;;;;;;;;;6.91;100.00;101069.94;5052882;28;20273;-69
2023/04/30 11:28:15;;;;;;;;;;;;;;;6.88;100.00;101076.34;5052712;28;19917;-70
2023/04/30 11:30:50;;;;;;;;;;;;;;;6.83;100.00;101078.56;5053181;28;19994;-68
2023/04/30 11:33:16;;;;;;;;;;;;;;;6.83;100.00;101078.56;5053175;28;19948;-68
2023/04/30 11:35:42;;;;;;;;;;;;;;;6.87;100.00;101079.97;5052643;28;20031;-69
2023/04/30 11:38:08;;;;;;;;;;;;;;;6.98;100.00;101082.56;5052924;28;19912;-68
2023/04/30 11:40:34;;;;;;;;;;;;;;;7.08;100.00;101082.59;5052980;28;20446;-68
2023/04/30 11:42:59;;;;;;;;;;;;;;;7.19;100.00;101084.31;5053176;28;20364;-70
2023/04/30 11:45:26;;;;;;;;;;;;;;;7.30;100.00;101081.56;5052826;28;19970;-69
2023/04/30 11:47:53;;;;;;;;;;;;;;;7.49;100.00;101076.31;5052665;28;19916;-69
2023/04/30 11:50:21;;;;;;;;;;;;;;;7.56;100.00;101080.13;5052998;28;19913;-70
2023/04/30 11:52:50;;;;;;;;;;;;;;;7.66;100.00;101073.03;5052925;28;20280;-70
2023/04/30 11:55:16;;;;;;;;;;;;;;;7.74;100.00;101075.84;5051803;28;20284;-67
2023/04/30 11:57:43;;;;;;;;;;;;;;;7.82;100.00;101071.69;5052709;28;20450;-70
2023/04/30 12:00:18;;;;;;;;;;;;;;;7.76;100.00;101068.56;5051487;28;20385;-70
2023/04/30 12:02:45;;;;;;;;;;;;;;;7.72;100.00;101067.19;5052645;28;19920;-69
2023/04/30 12:05:17;;;;;;;;;;;;;;;7.70;100.00;101073.59;5052916;28;19928;-70
2023/04/30 12:07:46;;;;;;;;;;;;;;;7.73;100.00;101063.56;5052890;28;19939;-68
2023/04/30 12:10:11;;;;;;;;;;;;;;;7.75;100.00;101063.41;5052808;28;19975;-72
2023/04/30 12:12:36;;;;;;;;;;;;;;;7.82;100.00;101067.22;5052758;28;20360;-71
2023/04/30 12:15:15;;;;;;;;;;;;;;;7.90;100.00;101062.06;5051399;28;19959;-74
2023/04/30 12:17:41;;;;;;;;;;;;;;;7.97;100.00;101062.34;5052558;28;19990;-70
2023/04/30 12:20:10;;;;;;;;;;;;;;;8.14;100.00;101066.97;5056659;28;19916;-69
2023/04/30 12:22:36;;;;;;;;;;;;;;;8.27;100.00;101062.19;5054455;28;19912;-69
2023/04/30 12:25:07;;;;;;;;;;;;;;;8.37;99.00;101063.06;5054236;28;19920;-68
2023/04/30 12:27:36;;;;;;;;;;;;;;;8.49;98.49;101061.09;5053668;28;19920;-70
2023/04/30 12:30:09;;;;;;;;;;;;;;;8.59;97.77;101046.00;5051460;28;19965;-73
2023/04/30 12:32:42;;;;;;;;;;;;;;;8.68;97.32;101050.47;5054428;28;19912;-71
2023/04/30 12:35:08;;;;;;;;;;;;;;;8.78;95.65;101058.41;5054007;28;19913;-71
2023/04/30 12:37:34;;;;;;;;;;;;;;;8.83;95.73;101050.84;5051131;28;19967;-68
2023/04/30 12:40:00;;;;;;;;;;;;;;;8.87;96.01;101059.34;5052423;28;19917;-70